createdAt,value
2018-04-29T00:00:17.078Z,2.00
2018-04-29T00:02:43.288Z,1.70
2018-04-29T00:05:10.214Z,2.47
2018-04-29T00:07:36.571Z,2.17
2018-04-29T00:10:03.581Z,1.53
2018-04-29T00:12:29.808Z,1.90
2018-04-29T00:14:56.049Z,2.23
2018-04-29T00:17:22.345Z,1.97
2018-04-29T00:19:48.639Z,2.00
2018-04-29T00:22:16.132Z,2.47
2018-04-29T00:24:42.397Z,2.30
2018-04-29T00:27:08.642Z,1.87
2018-04-29T00:29:35.636Z,2.67
2018-04-29T00:32:02.975Z,2.47
2018-04-29T00:34:29.487Z,2.80
2018-04-29T00:36:56.550Z,2.43
2018-04-29T00:39:23.636Z,2.20
2018-04-29T00:41:50.009Z,1.90
2018-04-29T00:44:32.737Z,2.10
2018-04-29T00:46:59.698Z,2.27
2018-04-29T00:49:26.837Z,2.10
2018-04-29T00:52:03.033Z,2.60
2018-04-29T00:54:29.282Z,2.13
2018-04-29T00:56:55.614Z,3.00
2018-04-29T00:59:21.988Z,2.50
2018-04-29T01:01:49.094Z,2.17
2018-04-29T01:04:15.304Z,1.87
2018-04-29T01:06:42.613Z,2.10
2018-04-29T01:09:09.529Z,2.17
2018-04-29T01:11:35.760Z,2.70
2018-04-29T01:14:01.933Z,2.50
2018-04-29T01:16:28.925Z,2.83
2018-04-29T01:18:55.161Z,2.10
2018-04-29T01:21:21.329Z,2.40
2018-04-29T01:23:48.283Z,2.93
2018-04-29T01:26:15.239Z,2.63
2018-04-29T01:28:42.561Z,2.40
2018-04-29T01:31:09.516Z,2.47
2018-04-29T01:33:36.435Z,2.13
2018-04-29T01:36:02.761Z,2.80
2018-04-29T01:38:28.999Z,2.33
2018-04-29T01:40:55.187Z,2.30
2018-04-29T01:43:21.424Z,2.47
2018-04-29T01:45:47.643Z,2.70
2018-04-29T01:48:13.832Z,3.30
2018-04-29T01:50:40.225Z,3.60
2018-04-29T01:53:06.517Z,2.53
2018-04-29T01:55:33.440Z,2.50
2018-04-29T01:58:01.133Z,1.93
2018-04-29T02:00:27.305Z,3.00
2018-04-29T02:02:53.514Z,2.60
2018-04-29T02:05:19.770Z,2.27
2018-04-29T02:07:46.045Z,2.80
2018-04-29T02:10:12.965Z,2.20
2018-04-29T02:12:39.956Z,2.47
2018-04-29T02:15:06.241Z,2.40
2018-04-29T02:17:32.817Z,2.27
2018-04-29T02:19:58.984Z,2.20
2018-04-29T02:22:25.180Z,2.23
2018-04-29T02:24:51.404Z,2.60
2018-04-29T02:27:17.685Z,1.93
2018-04-29T02:29:43.906Z,2.13
2018-04-29T02:32:10.090Z,1.63
2018-04-29T02:34:36.261Z,1.87
2018-04-29T02:37:02.489Z,1.73
2018-04-29T02:39:28.754Z,1.97
2018-04-29T02:41:55.716Z,2.30
2018-04-29T02:44:23.412Z,1.60
2018-04-29T02:46:49.629Z,1.77
2018-04-29T02:49:15.817Z,2.27
2018-04-29T02:51:42.734Z,2.40
2018-04-29T02:54:08.968Z,2.40
2018-04-29T02:56:36.666Z,1.90
2018-04-29T02:59:03.564Z,1.90
2018-04-29T03:01:29.850Z,2.30
2018-04-29T03:03:56.098Z,2.33
2018-04-29T03:06:22.372Z,2.30
2018-04-29T03:08:48.592Z,2.63
2018-04-29T03:11:14.824Z,2.47
2018-04-29T03:13:41.050Z,2.30
2018-04-29T03:16:07.342Z,2.47
2018-04-29T03:18:33.567Z,2.00
2018-04-29T03:20:59.801Z,2.10
2018-04-29T03:23:26.045Z,2.87
2018-04-29T03:25:52.950Z,2.97
2018-04-29T03:28:20.663Z,2.40
2018-04-29T03:30:46.859Z,2.20
2018-04-29T03:33:13.119Z,2.20
2018-04-29T03:35:39.372Z,2.43
2018-04-29T03:38:05.598Z,2.00
2018-04-29T03:40:31.824Z,2.10
2018-04-29T03:42:58.113Z,2.00
2018-04-29T03:45:24.347Z,1.80
2018-04-29T03:47:51.321Z,1.90
2018-04-29T03:50:17.610Z,2.37
2018-04-29T03:52:44.559Z,2.30
2018-04-29T03:55:10.751Z,2.40
2018-04-29T03:57:50.521Z,2.53
2018-04-29T04:00:28.983Z,2.13
2018-04-29T04:03:07.528Z,2.73
2018-04-29T04:05:33.684Z,4.07
2018-04-29T04:08:00.660Z,3.13
2018-04-29T04:10:27.302Z,2.70
2018-04-29T04:12:55.098Z,2.63
2018-04-29T04:15:21.334Z,2.57
2018-04-29T04:17:47.585Z,2.50
2018-04-29T04:30:03.905Z,2.80
2018-04-29T04:32:30.123Z,2.43
2018-04-29T04:34:56.578Z,2.70
2018-04-29T04:37:22.803Z,2.50
2018-04-29T04:39:48.999Z,2.87
2018-04-29T04:42:15.210Z,2.00
2018-04-29T04:44:41.426Z,2.60
2018-04-29T04:47:09.041Z,2.10
2018-04-29T04:49:35.245Z,2.90
2018-04-29T04:52:01.831Z,3.00
2018-04-29T04:54:28.024Z,2.70
2018-04-29T04:56:54.185Z,3.10
2018-04-29T04:59:21.093Z,2.50
2018-04-29T05:01:47.306Z,2.83
2018-04-29T05:04:13.715Z,2.70
2018-04-29T05:06:40.674Z,2.20
2018-04-29T05:09:06.913Z,3.27
2018-04-29T05:11:33.177Z,2.93
2018-04-29T05:14:01.391Z,3.57
2018-04-29T05:16:27.660Z,4.20
2018-04-29T05:18:53.880Z,3.73
2018-04-29T05:21:20.458Z,4.70
2018-04-29T05:23:46.622Z,4.27
2018-04-29T05:26:13.544Z,3.83
2018-04-29T05:28:39.827Z,3.40
2018-04-29T05:31:06.451Z,3.60
2018-04-29T05:33:32.665Z,4.27
2018-04-29T05:35:59.645Z,3.60
2018-04-29T05:38:25.927Z,3.70
2018-04-29T05:40:52.852Z,3.13
2018-04-29T05:43:19.044Z,3.60
2018-04-29T05:45:45.975Z,3.20
2018-04-29T05:48:12.248Z,3.03
2018-04-29T05:50:38.463Z,3.07
2018-04-29T05:53:04.687Z,3.53
2018-04-29T05:55:30.934Z,4.17
2018-04-29T05:57:57.175Z,3.07
2018-04-29T06:00:23.368Z,3.20
2018-04-29T06:02:49.517Z,3.97
2018-04-29T06:05:15.736Z,3.63
2018-04-29T06:07:42.005Z,4.37
2018-04-29T06:10:08.587Z,3.37
2018-04-29T06:12:34.745Z,4.23
2018-04-29T06:15:01.062Z,3.53
2018-04-29T06:17:27.274Z,4.70
2018-04-29T06:19:53.533Z,4.30
2018-04-29T06:22:19.820Z,4.70
2018-04-29T06:24:46.098Z,5.20
2018-04-29T06:27:12.331Z,4.10
2018-04-29T06:29:39.542Z,4.33
2018-04-29T06:32:07.412Z,4.40
2018-04-29T06:34:33.770Z,3.87
2018-04-29T06:37:00.720Z,4.00
2018-04-29T06:39:27.445Z,4.03
2018-04-29T06:41:53.671Z,4.30
2018-04-29T06:44:19.973Z,4.60
2018-04-29T06:46:46.302Z,4.20
2018-04-29T06:49:12.460Z,3.80
2018-04-29T06:51:38.691Z,3.80
2018-04-29T06:54:06.543Z,3.10
2018-04-29T06:56:32.853Z,3.83
2018-04-29T06:58:59.833Z,3.23
2018-04-29T07:01:26.777Z,3.87
2018-04-29T07:03:52.959Z,4.00
2018-04-29T07:06:19.595Z,4.20
2018-04-29T07:08:46.138Z,3.80
2018-04-29T07:11:14.559Z,3.63
2018-04-29T07:13:40.861Z,2.90
2018-04-29T07:16:07.866Z,4.03
2018-04-29T07:18:49.060Z,3.50
2018-04-29T07:23:52.990Z,4.20
2018-04-29T07:26:19.300Z,4.57
2018-04-29T07:28:45.860Z,4.30
2018-04-29T07:31:12.452Z,5.00
2018-04-29T07:33:38.673Z,3.93
2018-04-29T07:36:04.903Z,4.50
2018-04-29T07:38:31.123Z,4.87
2018-04-29T07:40:59.207Z,3.73
2018-04-29T07:43:26.272Z,4.30
2018-04-29T07:45:52.855Z,5.03
2018-04-29T07:48:20.844Z,4.60
2018-04-29T07:50:49.324Z,3.80
2018-04-29T07:53:17.591Z,4.83
2018-04-29T07:58:39.983Z,3.87
2018-04-29T08:01:06.594Z,3.93
2018-04-29T08:03:34.191Z,3.43
2018-04-29T08:08:52.488Z,3.03
2018-04-29T08:11:18.668Z,3.67
2018-04-29T08:13:45.126Z,3.40
2018-04-29T08:16:11.459Z,3.80
2018-04-29T08:18:37.761Z,3.83
2018-04-29T08:21:04.022Z,3.70
2018-04-29T08:23:30.469Z,4.60
2018-04-29T08:26:00.620Z,4.47
2018-04-29T08:28:28.772Z,4.30
2018-04-29T08:30:55.013Z,4.90
2018-04-29T08:33:21.394Z,5.10
2018-04-29T08:35:48.226Z,4.70
2018-04-29T08:38:14.521Z,5.90
2018-04-29T08:40:40.741Z,4.47
2018-04-29T08:43:08.501Z,4.67
2018-04-29T08:45:34.737Z,5.23
2018-04-29T08:48:01.069Z,4.57
2018-04-29T08:50:27.286Z,4.90
2018-04-29T08:52:53.497Z,4.93
2018-04-29T08:55:19.745Z,5.37
2018-04-29T08:57:45.948Z,4.73
2018-04-29T09:13:12.205Z,3.77
2018-04-29T09:15:38.702Z,4.00
2018-04-29T09:18:05.302Z,3.00
2018-04-29T09:20:32.100Z,3.70
2018-04-29T09:22:58.621Z,4.60
2018-04-29T09:25:24.913Z,2.97
2018-04-29T09:27:52.032Z,4.27
2018-04-29T09:30:18.533Z,3.70
2018-04-29T09:32:44.897Z,3.53
2018-04-29T09:35:11.128Z,3.40
2018-04-29T09:37:37.503Z,2.77
2018-04-29T09:40:03.739Z,3.37
2018-04-29T09:42:29.987Z,2.70
2018-04-29T09:44:56.227Z,2.90
2018-04-29T09:47:23.343Z,3.33
2018-04-29T09:49:49.612Z,2.90
2018-04-29T09:52:15.835Z,3.77
2018-04-29T09:54:42.050Z,3.80
2018-04-29T09:57:09.089Z,3.33
2018-04-29T09:59:35.349Z,3.60
2018-04-29T10:02:01.546Z,3.37
2018-04-29T10:04:27.815Z,3.63
2018-04-29T10:06:54.047Z,4.00
2018-04-29T10:09:20.321Z,2.70
2018-04-29T10:11:46.723Z,3.20
2018-04-29T10:14:12.956Z,3.27
2018-04-29T10:16:39.293Z,2.90
2018-04-29T10:19:05.798Z,3.33
2018-04-29T10:21:33.033Z,3.60
2018-04-29T10:23:59.622Z,3.10
2018-04-29T10:26:26.608Z,3.00
2018-04-29T10:28:52.801Z,3.80
2018-04-29T10:31:20.164Z,4.03
2018-04-29T10:33:49.192Z,4.77
2018-04-29T10:36:16.202Z,4.00
2018-04-29T10:38:43.160Z,4.07
2018-04-29T10:41:12.444Z,4.70
2018-04-29T10:43:39.841Z,4.97
2018-04-29T10:46:06.104Z,4.70
2018-04-29T10:48:32.340Z,4.17
2018-04-29T10:50:58.585Z,5.00
2018-04-29T10:53:28.422Z,4.40
2018-04-29T10:55:55.599Z,5.90
2018-04-29T10:58:22.267Z,5.87
2018-04-29T11:00:48.532Z,5.10
2018-04-29T11:03:19.007Z,5.67
2018-04-29T11:05:46.940Z,4.83
2018-04-29T11:08:13.182Z,4.87
2018-04-29T11:10:39.412Z,4.40
2018-04-29T11:13:05.737Z,4.83
2018-04-29T11:15:32.103Z,4.90
2018-04-29T11:17:59.072Z,6.73
2018-04-29T11:20:30.033Z,5.60
2018-04-29T11:22:57.063Z,4.80
2018-04-29T11:25:24.368Z,5.00
2018-04-29T11:27:51.219Z,4.50
2018-04-29T11:30:17.452Z,4.77
2018-04-29T11:32:43.764Z,5.33
2018-04-29T11:35:10.266Z,5.07
2018-04-29T11:37:37.690Z,5.07
2018-04-29T11:40:03.944Z,5.00
2018-04-29T11:42:30.892Z,4.00
2018-04-29T11:44:57.489Z,4.90
2018-04-29T11:47:24.408Z,4.73
2018-04-29T11:49:51.666Z,5.13
2018-04-29T11:52:17.877Z,4.83
2018-04-29T11:54:45.480Z,4.30
2018-04-29T11:57:11.745Z,5.00
2018-04-29T11:59:38.093Z,5.10
2018-04-29T12:02:05.433Z,5.47
2018-04-29T12:04:31.954Z,6.03
2018-04-29T12:06:58.181Z,5.57
2018-04-29T12:09:24.511Z,5.20
2018-04-29T12:11:50.723Z,5.10
2018-04-29T12:14:16.912Z,5.80
2018-04-29T12:16:43.120Z,5.57
2018-04-29T12:19:10.061Z,5.10
2018-04-29T12:21:36.371Z,5.87
2018-04-29T12:24:02.581Z,4.80
2018-04-29T12:26:28.839Z,5.40
2018-04-29T12:28:55.147Z,5.50
2018-04-29T12:31:21.419Z,5.73
2018-04-29T12:33:48.418Z,5.90
2018-04-29T12:36:14.697Z,5.70
2018-04-29T12:38:41.758Z,5.90
2018-04-29T12:41:08.704Z,5.90
2018-04-29T12:43:35.666Z,4.90
2018-04-29T12:46:01.962Z,4.53
2018-04-29T12:48:28.881Z,5.30
2018-04-29T12:50:55.158Z,5.83
2018-04-29T12:53:22.142Z,5.20
2018-04-29T12:55:48.338Z,4.97
2018-04-29T12:58:15.342Z,5.50
2018-04-29T13:00:41.697Z,9.07
2018-04-29T13:03:08.635Z,8.20
2018-04-29T13:05:36.335Z,20.33
2018-04-29T13:08:02.540Z,15.27
2018-04-29T13:10:29.760Z,44.60
2018-04-29T13:12:56.393Z,22.13
2018-04-29T13:15:22.666Z,10.40
2018-04-29T13:17:49.613Z,11.60
2018-04-29T13:20:16.676Z,15.20
2018-04-29T13:22:42.876Z,18.83
2018-04-29T13:25:09.208Z,14.13
2018-04-29T13:27:37.102Z,14.43
2018-04-29T13:30:04.545Z,16.50
2018-04-29T13:32:32.369Z,9.77
2018-04-29T13:34:58.612Z,10.83
2018-04-29T13:37:24.856Z,9.73
2018-04-29T13:39:51.411Z,9.93
2018-04-29T13:42:18.510Z,7.20
2018-04-29T13:44:45.378Z,7.03
2018-04-29T13:47:11.614Z,6.63
2018-04-29T13:49:37.832Z,7.63
2018-04-29T13:52:04.158Z,5.77
2018-04-29T13:54:31.027Z,5.43
2018-04-29T13:56:57.965Z,6.00
2018-04-29T13:59:24.188Z,6.50
2018-04-29T14:01:50.426Z,5.50
2018-04-29T14:04:16.649Z,6.47
2018-04-29T14:06:43.680Z,5.13
2018-04-29T14:09:09.907Z,5.57
2018-04-29T14:11:36.250Z,5.80
2018-04-29T14:14:02.516Z,5.40
2018-04-29T14:26:19.524Z,6.70
2018-04-29T14:28:45.703Z,6.53
2018-04-29T14:31:12.009Z,6.07
2018-04-29T14:33:38.273Z,5.90
2018-04-29T14:36:05.853Z,5.50
2018-04-29T14:38:32.633Z,5.33
2018-04-29T14:40:59.227Z,6.80
2018-04-29T14:43:25.583Z,5.47
2018-04-29T14:45:51.829Z,5.50
2018-04-29T14:48:18.088Z,5.23
2018-04-29T14:50:44.330Z,5.43
2018-04-29T14:53:11.990Z,5.70
2018-04-29T14:55:38.934Z,5.80
2018-04-29T14:58:05.191Z,5.23
2018-04-29T15:00:31.473Z,5.53
2018-04-29T15:02:57.670Z,6.20
2018-04-29T15:05:23.937Z,6.10
2018-04-29T15:07:50.190Z,6.87
2018-04-29T15:10:16.447Z,6.17
2018-04-29T15:12:42.685Z,6.97
2018-04-29T15:15:09.771Z,7.47
2018-04-29T15:17:36.041Z,9.50
2018-04-29T15:20:03.111Z,9.23
2018-04-29T15:22:29.408Z,7.97
2018-04-29T15:24:56.376Z,7.40
2018-04-29T15:27:22.610Z,6.00
2018-04-29T15:29:48.843Z,6.00
2018-04-29T15:32:15.040Z,6.40
2018-04-29T15:34:41.994Z,5.67
2018-04-29T15:37:08.958Z,6.50
2018-04-29T15:39:35.294Z,6.00
2018-04-29T15:42:01.521Z,6.03
2018-04-29T15:44:27.807Z,5.20
2018-04-29T15:46:54.026Z,6.13
2018-04-29T15:49:20.261Z,5.27
2018-04-29T15:51:46.520Z,5.90
2018-04-29T15:54:13.544Z,5.83
2018-04-29T15:56:40.824Z,5.50
2018-04-29T15:59:11.780Z,5.30
2018-04-29T16:01:37.982Z,4.70
2018-04-29T16:04:05.341Z,4.87
2018-04-29T16:06:32.352Z,4.53
2018-04-29T16:08:58.623Z,4.30
2018-04-29T16:11:25.589Z,4.47
2018-04-29T16:13:51.837Z,5.23
2018-04-29T16:16:18.094Z,3.97
2018-04-29T16:18:44.320Z,4.40
2018-04-29T16:21:10.517Z,4.13
2018-04-29T16:23:36.749Z,5.10
2018-04-29T16:26:02.961Z,4.80
2018-04-29T16:28:29.194Z,4.60
2018-04-29T16:30:55.423Z,4.40
2018-04-29T16:33:21.657Z,4.60
2018-04-29T16:35:48.734Z,4.00
2018-04-29T16:38:15.021Z,4.23
2018-04-29T16:40:41.216Z,4.13
2018-04-29T16:43:07.478Z,4.00
2018-04-29T16:45:33.672Z,4.83
2018-04-29T16:47:59.941Z,4.50
2018-04-29T16:50:26.150Z,4.40
2018-04-29T16:52:53.124Z,4.43
2018-04-29T16:55:19.353Z,4.60
2018-04-29T16:57:47.116Z,4.70
2018-04-29T17:00:13.371Z,4.10
2018-04-29T17:02:39.590Z,4.20
2018-04-29T17:05:05.850Z,4.63
2018-04-29T17:07:32.123Z,3.90
2018-04-29T17:09:58.821Z,3.73
2018-04-29T17:12:25.026Z,3.50
2018-04-29T17:14:51.244Z,4.43
2018-04-29T17:17:17.498Z,4.83
2018-04-29T17:19:43.790Z,4.50
2018-04-29T17:22:10.034Z,4.90
2018-04-29T17:24:36.262Z,5.20
2018-04-29T17:27:02.545Z,3.83
2018-04-29T17:29:29.645Z,5.67
2018-04-29T17:31:56.873Z,4.60
2018-04-29T17:34:23.325Z,5.90
2018-04-29T17:36:49.643Z,7.40
2018-04-29T17:39:15.897Z,5.97
2018-04-29T17:41:43.763Z,5.90
2018-04-29T17:44:10.071Z,9.17
2018-04-29T17:46:36.237Z,10.87
2018-04-29T17:49:03.311Z,9.37
2018-04-29T17:51:30.343Z,6.70
2018-04-29T17:53:56.582Z,7.97
2018-04-29T17:56:22.834Z,6.40
2018-04-29T17:58:49.073Z,8.10
2018-04-29T18:01:15.339Z,7.43
2018-04-29T18:03:41.598Z,8.20
2018-04-29T18:06:08.575Z,9.27
2018-04-29T18:08:35.561Z,6.80
2018-04-29T18:11:01.851Z,7.10
2018-04-29T18:13:28.828Z,6.57
2018-04-29T18:15:55.116Z,6.13
2018-04-29T18:18:22.453Z,5.80
2018-04-29T18:20:49.013Z,5.20
2018-04-29T18:23:15.301Z,5.43
2018-04-29T18:25:41.593Z,5.60
2018-04-29T18:28:08.034Z,5.53
2018-04-29T18:30:34.373Z,5.63
2018-04-29T18:33:01.025Z,6.13
2018-04-29T18:35:28.891Z,5.53
2018-04-29T18:37:56.271Z,6.10
2018-04-29T18:40:22.533Z,5.43
2018-04-29T18:42:49.566Z,5.67
2018-04-29T18:45:15.872Z,6.30
2018-04-29T18:47:42.530Z,5.50
2018-04-29T18:50:08.754Z,6.00
2018-04-29T18:52:35.451Z,4.77
2018-04-29T18:55:03.256Z,5.57
2018-04-29T18:57:29.978Z,5.73
2018-04-29T18:59:56.609Z,5.13
2018-04-29T19:02:22.963Z,5.63
2018-04-29T19:04:49.617Z,5.90
2018-04-29T19:07:19.030Z,5.33
2018-04-29T19:09:47.164Z,5.07
2018-04-29T19:12:14.580Z,5.67
2018-04-29T19:14:43.231Z,5.93
2018-04-29T19:17:09.624Z,5.17
2018-04-29T19:19:35.970Z,7.53
2018-04-29T19:22:04.049Z,6.10
2018-04-29T19:24:30.554Z,5.73
2018-04-29T19:27:05.141Z,7.23
2018-04-29T19:29:32.580Z,5.83
2018-04-29T19:32:01.103Z,6.23
2018-04-29T19:34:32.834Z,5.50
2018-04-29T19:37:15.029Z,5.80
2018-04-29T19:39:44.764Z,5.23
2018-04-29T19:42:12.852Z,5.17
2018-04-29T19:44:53.184Z,6.63
2018-04-29T19:47:21.316Z,5.50
2018-04-29T19:49:52.997Z,5.37
2018-04-29T19:52:19.258Z,4.97
2018-04-29T19:54:46.617Z,5.30
2018-04-29T19:57:15.646Z,5.57
2018-04-29T19:59:43.631Z,6.30
2018-04-29T20:02:09.910Z,5.30
2018-04-29T20:04:36.960Z,6.57
2018-04-29T20:07:04.829Z,6.00
2018-04-29T20:09:31.905Z,6.83
2018-04-29T20:11:59.893Z,6.30
2018-04-29T20:14:26.798Z,6.97
2018-04-29T20:16:54.138Z,6.40
2018-04-29T20:19:21.307Z,5.43
2018-04-29T20:21:49.461Z,6.27
2018-04-29T20:24:16.654Z,5.87
2018-04-29T20:26:44.764Z,9.03
2018-04-29T20:29:11.657Z,6.90
2018-04-29T20:31:37.910Z,6.80
2018-04-29T20:34:04.129Z,10.57
2018-04-29T20:36:30.404Z,6.80
2018-04-29T20:38:56.741Z,6.30
2018-04-29T20:41:24.434Z,7.00
2018-04-29T20:43:51.412Z,6.27
2018-04-29T20:46:17.753Z,6.27
2018-04-29T20:48:44.217Z,6.37
2018-04-29T20:51:11.233Z,7.10
2018-04-29T20:53:37.491Z,7.03
2018-04-29T20:56:04.220Z,7.10
2018-04-29T20:58:31.201Z,6.13
2018-04-29T21:00:58.176Z,6.80
2018-04-29T21:03:24.404Z,5.83
2018-04-29T21:05:50.607Z,5.73
2018-04-29T21:08:18.628Z,6.40
2018-04-29T21:10:44.908Z,5.57
2018-04-29T21:13:12.225Z,6.83
2018-04-29T21:15:38.538Z,6.60
2018-04-29T21:18:04.789Z,6.90
2018-04-29T21:20:31.019Z,5.97
2018-04-29T21:22:57.295Z,5.33
2018-04-29T21:25:23.510Z,6.37
2018-04-29T21:27:50.549Z,6.07
2018-04-29T21:30:16.760Z,5.50
2018-04-29T21:32:44.425Z,6.60
2018-04-29T21:35:10.676Z,5.83
2018-04-29T21:37:37.767Z,6.20
2018-04-29T21:40:03.958Z,5.70
2018-04-29T21:42:31.093Z,5.40
2018-04-29T21:44:57.808Z,5.53
2018-04-29T21:47:24.151Z,6.00
2018-04-29T21:49:50.987Z,5.80
2018-04-29T21:52:17.912Z,5.37
2018-04-29T21:54:44.127Z,5.63
2018-04-29T21:57:10.355Z,5.90
2018-04-29T21:59:36.581Z,6.03
2018-04-29T22:02:02.821Z,5.53
2018-04-29T22:04:30.698Z,6.57
2018-04-29T22:06:56.909Z,6.57
2018-04-29T22:09:23.120Z,6.47
2018-04-29T22:11:50.841Z,6.40
2018-04-29T22:14:17.097Z,5.67
2018-04-29T22:16:43.299Z,5.50
2018-04-29T22:19:09.526Z,5.70
2018-04-29T22:21:35.845Z,5.90
2018-04-29T22:24:02.725Z,5.33
2018-04-29T22:26:29.775Z,5.13
2018-04-29T22:28:56.700Z,5.40
2018-04-29T22:31:22.882Z,4.80
2018-04-29T22:33:49.131Z,5.40
2018-04-29T22:36:15.612Z,5.83
2018-04-29T22:38:41.933Z,5.90
2018-04-29T22:41:08.892Z,5.30
2018-04-29T22:43:36.831Z,5.17
2018-04-29T22:46:03.117Z,6.00
2018-04-29T22:48:29.324Z,6.37
2018-04-29T22:50:56.297Z,5.83
2018-04-29T22:53:22.526Z,6.23
2018-04-29T22:55:49.085Z,5.43
2018-04-29T22:58:15.319Z,5.60
2018-04-29T23:00:41.532Z,5.23
2018-04-29T23:03:08.861Z,5.70
2018-04-29T23:05:35.826Z,5.30
2018-04-29T23:08:02.038Z,5.33
2018-04-29T23:10:28.274Z,5.60
2018-04-29T23:12:54.491Z,5.20
2018-04-29T23:15:21.475Z,4.80
2018-04-29T23:17:47.702Z,5.40
2018-04-29T23:20:13.927Z,5.43
2018-04-29T23:22:40.867Z,5.37
2018-04-29T23:25:07.065Z,6.47
2018-04-29T23:27:34.009Z,5.80
2018-04-29T23:30:01.012Z,5.43
2018-04-29T23:32:27.190Z,6.30
2018-04-29T23:34:54.212Z,5.77
2018-04-29T23:37:20.416Z,6.30
2018-04-29T23:39:46.687Z,5.73
2018-04-29T23:42:13.691Z,6.80
2018-04-29T23:44:39.912Z,7.20
2018-04-29T23:47:06.601Z,6.50
2018-04-29T23:49:33.575Z,7.27
2018-04-29T23:51:59.767Z,7.57
2018-04-29T23:54:26.389Z,7.20
2018-04-29T23:56:52.582Z,6.47
2018-04-29T23:59:18.772Z,6.37
